Orbital elements of CZ-4C R/B
| Launched | 22 September 2013 |
| Flight ended | – |
| Launch site | Taiyuan Space Center, PRC |
| Owner | People's Republic of China |
| NORAD ID | 39261 |
| Date fetched |
Epoch osculation |
Inc. [°] |
Ecc. | RA asc node [hr] |
Arg Peri. [°] |
Mean anom [°] |
Mean motion [rev/day] |
Abs. mag |
| Date fetched |
Epoch osculation |
Inc. [°] |
Ecc. | RA asc node [hr] |
Arg Peri. [°] |
Mean anom [°] |
Mean motion [rev/day] |
Abs. mag |
| 2026 May 05 17:57 | 2026 May 05 09:22:32 | 98.8438 | 0.00308 | 0.8442 | 219.1170 | 140.7789 | 14.33949 | 4.500 |
| 2026 May 04 17:57 | 2026 Apr 30 15:29:56 | 98.8447 | 0.00306 | 0.5209 | 233.4263 | 140.7789 | 14.33949 | 4.500 |
| 2026 May 03 17:57 | 2026 Apr 30 15:29:56 | 98.8447 | 0.00306 | 0.5209 | 233.4263 | 140.7789 | 14.33949 | 4.500 |
| 2026 May 02 17:57 | 2026 Apr 30 15:29:56 | 98.8447 | 0.00306 | 0.5209 | 233.4263 | 140.7789 | 14.33949 | 4.500 |
| 2026 May 01 17:56 | 2026 Apr 30 15:29:56 | 98.8447 | 0.00306 | 0.5209 | 233.4263 | 140.7789 | 14.33949 | 4.500 |
| 2026 Apr 30 17:56 | 2026 Apr 30 15:29:56 | 98.8447 | 0.00306 | 0.5209 | 233.4263 | 140.7789 | 14.33949 | 4.500 |
| 2026 Apr 29 17:57 | 2026 Apr 24 07:06:19 | 98.8454 | 0.00305 | 0.0881 | 252.6781 | 140.7789 | 14.33949 | 4.500 |
| 2026 Apr 28 17:56 | 2026 Apr 24 07:06:19 | 98.8454 | 0.00305 | 0.0881 | 252.6781 | 140.7789 | 14.33949 | 4.500 |
| 2026 Apr 27 17:58 | 2026 Apr 24 07:06:19 | 98.8454 | 0.00305 | 0.0881 | 252.6781 | 140.7789 | 14.33949 | 4.500 |
| 2026 Apr 26 17:58 | 2026 Apr 24 07:06:19 | 98.8454 | 0.00305 | 0.0881 | 252.6781 | 140.7789 | 14.33949 | 4.500 |
| 2026 Apr 25 17:58 | 2026 Apr 24 07:06:19 | 98.8454 | 0.00305 | 0.0881 | 252.6781 | 140.7789 | 14.33949 | 4.500 |
| 2026 Apr 24 17:59 | 2026 Apr 24 07:06:19 | 98.8454 | 0.00305 | 0.0881 | 252.6781 | 140.7789 | 14.33949 | 4.500 |
| 2026 Apr 23 17:57 | 2026 Apr 19 09:52:46 | 98.8460 | 0.00304 | 23.7551 | 267.5348 | 140.7789 | 14.33949 | 4.500 |
| 2026 Apr 22 17:57 | 2026 Apr 19 09:52:46 | 98.8460 | 0.00304 | 23.7551 | 267.5348 | 140.7789 | 14.33949 | 4.500 |
| 2026 Apr 21 17:57 | 2026 Apr 19 09:52:46 | 98.8460 | 0.00304 | 23.7551 | 267.5348 | 140.7789 | 14.33949 | 4.500 |
| 2026 Apr 20 17:57 | 2026 Apr 19 09:52:46 | 98.8460 | 0.00304 | 23.7551 | 267.5348 | 140.7789 | 14.33949 | 4.500 |
| 2026 Apr 19 17:58 | 2026 Apr 19 09:52:46 | 98.8460 | 0.00304 | 23.7551 | 267.5348 | 140.7789 | 14.33949 | 4.500 |
| 2026 Apr 18 17:56 | 2026 Apr 13 03:09:37 | 98.8472 | 0.00305 | 23.3270 | 286.6348 | 140.7789 | 14.33949 | 4.500 |
| 2026 Apr 16 17:57 | 2026 Apr 13 03:09:37 | 98.8472 | 0.00305 | 23.3270 | 286.6348 | 140.7789 | 14.33949 | 4.500 |
| 2026 Apr 14 17:57 | 2026 Apr 13 03:09:37 | 98.8472 | 0.00305 | 23.3270 | 286.6348 | 140.7789 | 14.33949 | 4.500 |
| 2026 Apr 13 17:57 | 2026 Apr 13 03:09:37 | 98.8472 | 0.00305 | 23.3270 | 286.6348 | 140.7789 | 14.33949 | 4.500 |
| 2026 Apr 12 17:57 | 2026 Apr 08 14:18:28 | 98.8476 | 0.00306 | 23.0178 | 300.3369 | 140.7789 | 14.33949 | 4.500 |
| 2026 Apr 11 17:57 | 2026 Apr 08 14:18:28 | 98.8476 | 0.00306 | 23.0178 | 300.3369 | 140.7789 | 14.33949 | 4.500 |
| 2026 Apr 10 17:58 | 2026 Apr 08 14:18:28 | 98.8476 | 0.00306 | 23.0178 | 300.3369 | 140.7789 | 14.33949 | 4.500 |
| 2026 Apr 09 18:01 | 2026 Apr 08 14:18:28 | 98.8476 | 0.00306 | 23.0178 | 300.3369 | 140.7789 | 14.33949 | 4.500 |
| 2026 Apr 08 17:57 | 2026 Apr 08 14:18:28 | 98.8476 | 0.00306 | 23.0178 | 300.3369 | 140.7789 | 14.33949 | 4.500 |